createdAt,value
2023-03-03T00:00:14.720Z,14.77
2023-03-03T00:02:42.147Z,14.40
2023-03-03T00:05:09.806Z,12.97
2023-03-03T00:07:37.329Z,13.57
2023-03-03T00:10:04.932Z,14.17
2023-03-03T00:12:35.643Z,15.33
2023-03-03T00:15:03.166Z,16.03
2023-03-03T00:17:32.889Z,16.20
2023-03-03T00:20:00.356Z,16.70
2023-03-03T00:22:32.120Z,15.17
2023-03-03T00:25:01.201Z,14.07
2023-03-03T00:27:31.282Z,12.73
2023-03-03T00:30:00.105Z,13.40
2023-03-03T00:32:45.641Z,13.90
2023-03-03T00:35:22.328Z,14.53
2023-03-03T00:37:52.524Z,15.50
2023-03-03T00:40:24.918Z,15.73
2023-03-03T00:42:56.687Z,16.63
2023-03-03T00:45:50.148Z,15.73
2023-03-03T00:48:31.288Z,16.17
2023-03-03T00:50:59.883Z,15.07
2023-03-03T00:53:31.079Z,15.10
2023-03-03T00:55:59.083Z,15.00
2023-03-03T00:58:27.668Z,14.77
2023-03-03T01:00:56.855Z,13.07
2023-03-03T01:03:25.623Z,14.07
2023-03-03T01:05:53.573Z,15.17
2023-03-03T01:08:22.377Z,14.87
2023-03-03T01:10:51.249Z,15.13
2023-03-03T01:13:19.376Z,15.80
2023-03-03T01:15:46.710Z,15.40
2023-03-03T01:18:14.725Z,15.60
2023-03-03T01:20:42.599Z,15.73
2023-03-03T01:23:10.041Z,14.60
2023-03-03T01:25:37.879Z,13.90
2023-03-03T01:28:05.521Z,13.77
2023-03-03T01:30:33.106Z,12.00
2023-03-03T01:33:00.522Z,12.00
2023-03-03T01:35:28.178Z,12.90
2023-03-03T01:37:55.532Z,12.53
2023-03-03T01:40:24.785Z,12.57
2023-03-03T01:42:52.886Z,11.70
2023-03-03T01:45:20.289Z,13.53
2023-03-03T01:48:00.607Z,14.17
2023-03-03T01:50:40.797Z,14.80
2023-03-03T01:53:12.118Z,14.90
2023-03-03T01:55:40.962Z,13.50
2023-03-03T01:58:10.440Z,12.77
2023-03-03T02:00:39.563Z,12.87
2023-03-03T02:03:07.260Z,12.87
2023-03-03T02:05:36.763Z,11.87
2023-03-03T02:08:04.604Z,12.40
2023-03-03T02:10:32.521Z,11.83
2023-03-03T02:13:00.121Z,11.33
2023-03-03T02:15:29.206Z,10.40
2023-03-03T02:17:58.126Z,11.33
2023-03-03T02:20:25.571Z,11.63
2023-03-03T02:23:08.729Z,12.33
2023-03-03T02:25:49.818Z,11.43
2023-03-03T02:28:17.248Z,11.97
2023-03-03T02:30:44.946Z,12.00
2023-03-03T02:33:12.330Z,11.33
2023-03-03T02:35:40.690Z,11.87
2023-03-03T02:38:23.337Z,12.43
2023-03-03T02:41:00.262Z,11.97
2023-03-03T02:43:30.050Z,11.60
2023-03-03T02:45:58.023Z,11.33
2023-03-03T02:48:25.404Z,13.93
2023-03-03T02:50:52.721Z,11.97
2023-03-03T02:53:20.362Z,11.20
2023-03-03T02:55:47.807Z,11.60
2023-03-03T02:58:15.158Z,11.33
2023-03-03T03:00:42.548Z,11.67
2023-03-03T03:03:09.860Z,12.93
2023-03-03T03:05:37.244Z,12.47
2023-03-03T03:08:04.684Z,12.13
2023-03-03T03:10:32.006Z,13.03
2023-03-03T03:12:59.398Z,12.03
2023-03-03T03:15:26.820Z,11.97
2023-03-03T03:17:54.211Z,11.50
2023-03-03T03:20:21.554Z,10.63
2023-03-03T03:22:49.175Z,11.43
2023-03-03T03:25:16.620Z,9.93
2023-03-03T03:27:44.000Z,9.20
2023-03-03T03:30:11.946Z,9.50
2023-03-03T03:32:39.329Z,9.30
2023-03-03T03:35:06.869Z,9.50
2023-03-03T03:37:34.239Z,10.87
2023-03-03T03:40:01.683Z,9.93
2023-03-03T03:42:29.040Z,11.27
2023-03-03T03:44:56.471Z,11.27
2023-03-03T03:47:23.789Z,12.10
2023-03-03T03:49:51.106Z,11.53
2023-03-03T03:52:18.903Z,10.77
2023-03-03T03:54:46.467Z,10.50
2023-03-03T03:57:14.541Z,11.30
2023-03-03T03:59:41.895Z,10.57
2023-03-03T04:02:09.414Z,10.30
2023-03-03T04:04:36.977Z,10.70
2023-03-03T04:07:04.412Z,11.10
2023-03-03T04:09:31.904Z,10.20
2023-03-03T04:11:59.351Z,9.30
2023-03-03T04:14:26.729Z,10.53
2023-03-03T04:16:54.235Z,9.43
2023-03-03T04:19:21.649Z,10.03
2023-03-03T04:21:49.092Z,9.53
2023-03-03T04:24:16.937Z,8.83
2023-03-03T04:26:44.293Z,8.63
2023-03-03T04:29:11.691Z,8.87
2023-03-03T04:31:39.108Z,10.10
2023-03-03T04:34:06.422Z,10.30
2023-03-03T04:36:33.735Z,9.70
2023-03-03T04:39:01.175Z,9.13
2023-03-03T04:41:28.573Z,9.87
2023-03-03T04:43:55.833Z,9.33
2023-03-03T04:46:23.336Z,8.10
2023-03-03T04:48:53.249Z,9.10
2023-03-03T04:51:20.633Z,8.03
2023-03-03T04:53:48.065Z,8.17
2023-03-03T04:56:15.832Z,8.13
2023-03-03T04:58:43.225Z,7.47
2023-03-03T05:01:13.849Z,6.63
2023-03-03T05:03:41.632Z,6.80
2023-03-03T05:06:09.204Z,7.53
2023-03-03T05:08:36.639Z,8.70
2023-03-03T05:11:04.411Z,8.10
2023-03-03T05:13:32.073Z,8.50
2023-03-03T05:15:59.486Z,7.20
2023-03-03T05:18:27.730Z,8.07
2023-03-03T05:20:55.186Z,7.33
2023-03-03T05:23:22.843Z,7.93
2023-03-03T05:25:50.695Z,7.60
2023-03-03T05:28:18.608Z,7.63
2023-03-03T05:30:46.128Z,6.80
2023-03-03T05:33:14.291Z,7.77
2023-03-03T05:35:41.610Z,8.53
2023-03-03T05:38:08.948Z,8.67
2023-03-03T05:40:36.757Z,7.80
2023-03-03T05:43:04.204Z,8.10
2023-03-03T05:45:31.711Z,7.00
2023-03-03T05:47:59.172Z,7.87
2023-03-03T05:50:26.594Z,7.43
2023-03-03T05:52:55.192Z,7.27
2023-03-03T05:55:22.999Z,6.50
2023-03-03T05:57:50.519Z,6.80
2023-03-03T06:00:18.208Z,6.93
2023-03-03T06:02:45.600Z,6.90
2023-03-03T06:05:13.084Z,7.27
2023-03-03T06:07:40.741Z,6.53
2023-03-03T06:10:09.826Z,5.70
2023-03-03T06:12:39.152Z,5.63
2023-03-03T06:15:07.666Z,5.73
2023-03-03T06:17:35.141Z,5.70
2023-03-03T06:20:03.400Z,6.60
2023-03-03T06:22:31.132Z,5.40
2023-03-03T06:24:58.418Z,5.00
2023-03-03T06:27:25.761Z,5.20
2023-03-03T06:29:53.250Z,5.80
2023-03-03T06:32:20.685Z,5.40
2023-03-03T06:34:48.132Z,5.33
2023-03-03T06:37:15.527Z,5.40
2023-03-03T06:39:43.391Z,5.00
2023-03-03T06:42:10.949Z,5.17
2023-03-03T06:44:38.443Z,5.27
2023-03-03T06:47:06.347Z,5.73
2023-03-03T06:49:33.770Z,5.90
2023-03-03T06:52:02.573Z,5.30
2023-03-03T06:54:30.982Z,5.60
2023-03-03T06:57:00.229Z,4.73
2023-03-03T06:59:28.871Z,5.10
2023-03-03T07:01:57.101Z,6.00
2023-03-03T07:04:33.705Z,5.30
2023-03-03T07:07:06.918Z,5.40
2023-03-03T07:09:34.442Z,4.77
2023-03-03T07:12:02.812Z,5.40
2023-03-03T07:14:31.499Z,5.17
2023-03-03T07:17:02.843Z,4.70
2023-03-03T07:19:37.057Z,4.77
2023-03-03T07:22:13.638Z,4.90
2023-03-03T07:24:41.876Z,5.10
2023-03-03T07:27:15.225Z,4.60
2023-03-03T07:29:42.813Z,6.60
2023-03-03T07:32:20.931Z,6.20
2023-03-03T07:34:49.426Z,5.87
2023-03-03T07:37:17.608Z,5.37
2023-03-03T07:39:46.434Z,4.80
2023-03-03T07:42:29.050Z,5.90
2023-03-03T07:44:58.999Z,5.60
2023-03-03T07:47:27.738Z,4.30
2023-03-03T07:49:56.636Z,4.40
2023-03-03T07:52:33.199Z,4.73
2023-03-03T07:55:02.177Z,5.10
2023-03-03T07:57:40.135Z,3.80
2023-03-03T08:00:19.465Z,5.80
2023-03-03T08:02:52.769Z,5.50
2023-03-03T08:05:32.412Z,4.43
2023-03-03T08:08:11.551Z,4.10
2023-03-03T08:10:39.000Z,4.57
2023-03-03T08:13:32.857Z,4.83
2023-03-03T08:16:05.593Z,10.80
2023-03-03T08:18:49.866Z,9.67
2023-03-03T08:21:21.089Z,6.13
2023-03-03T08:23:51.873Z,5.33
2023-03-03T08:26:20.006Z,4.73
2023-03-03T08:28:48.248Z,5.03
2023-03-03T08:31:28.085Z,4.80
2023-03-03T08:34:03.709Z,5.53
2023-03-03T08:36:33.053Z,4.67
2023-03-03T08:39:02.064Z,4.83
2023-03-03T08:41:29.584Z,4.80
2023-03-03T08:43:56.902Z,4.47
2023-03-03T08:46:24.554Z,4.20
2023-03-03T08:48:52.820Z,3.97
2023-03-03T08:51:20.294Z,4.20
2023-03-03T08:53:47.810Z,4.53
2023-03-03T08:56:15.194Z,4.97
2023-03-03T08:59:01.137Z,4.60
2023-03-03T09:01:29.482Z,4.33
2023-03-03T09:03:57.025Z,4.10
2023-03-03T09:06:24.420Z,4.67
2023-03-03T09:08:51.952Z,3.80
2023-03-03T09:11:23.249Z,3.90
2023-03-03T09:13:53.463Z,3.57
2023-03-03T09:16:22.389Z,3.60
2023-03-03T09:18:50.309Z,3.73
2023-03-03T09:21:27.789Z,3.77
2023-03-03T09:23:59.560Z,3.47
2023-03-03T09:26:28.656Z,3.77
2023-03-03T09:29:17.656Z,3.23
2023-03-03T09:31:45.162Z,3.03
2023-03-03T09:34:24.784Z,3.57
2023-03-03T09:36:53.888Z,3.67
2023-03-03T09:39:26.170Z,3.27
2023-03-03T09:41:56.651Z,3.43
2023-03-03T09:44:42.938Z,3.97
2023-03-03T09:47:10.402Z,3.33
2023-03-03T09:49:59.700Z,3.70
2023-03-03T09:52:49.561Z,3.77
2023-03-03T09:55:17.028Z,3.13
2023-03-03T09:58:10.516Z,2.87
2023-03-03T10:00:57.580Z,2.97
2023-03-03T10:03:34.244Z,3.13
2023-03-03T10:06:01.962Z,2.97
2023-03-03T10:08:49.413Z,2.97
2023-03-03T10:11:20.205Z,3.40
2023-03-03T10:14:16.543Z,3.30
2023-03-03T10:16:52.436Z,3.23
2023-03-03T10:19:34.356Z,3.27
2023-03-03T10:22:20.676Z,2.97
2023-03-03T10:25:05.042Z,2.63
2023-03-03T10:27:39.907Z,2.70
2023-03-03T10:30:09.919Z,2.83
2023-03-03T10:32:40.381Z,2.83
2023-03-03T10:35:07.882Z,2.73
2023-03-03T10:37:54.721Z,3.00
2023-03-03T10:40:28.792Z,2.90
2023-03-03T10:43:04.033Z,2.47
2023-03-03T10:45:35.351Z,2.50
2023-03-03T10:48:20.889Z,2.47
2023-03-03T10:50:53.920Z,2.20
2023-03-03T10:53:30.920Z,2.17
2023-03-03T10:56:08.148Z,2.53
2023-03-03T10:58:52.759Z,3.00
2023-03-03T11:01:24.743Z,1.97
2023-03-03T11:04:08.065Z,2.40
2023-03-03T11:06:56.303Z,2.47
2023-03-03T11:09:41.132Z,1.90
2023-03-03T11:12:27.020Z,2.10
2023-03-03T11:15:03.340Z,2.07
2023-03-03T11:17:37.070Z,2.10
2023-03-03T11:20:20.445Z,2.33
2023-03-03T11:22:50.647Z,1.70
2023-03-03T11:25:30.769Z,2.10
2023-03-03T11:28:33.495Z,1.60
2023-03-03T11:31:00.819Z,2.10
2023-03-03T11:33:31.165Z,2.30
2023-03-03T11:36:10.595Z,1.80
2023-03-03T11:38:50.036Z,2.00
2023-03-03T11:41:27.733Z,2.00
2023-03-03T11:44:21.255Z,1.97
2023-03-03T11:46:51.650Z,1.93
2023-03-03T11:49:33.920Z,1.97
2023-03-03T11:52:11.598Z,1.53
2023-03-03T11:54:57.309Z,1.53
2023-03-03T11:57:27.500Z,1.70
2023-03-03T11:59:59.407Z,1.60
2023-03-03T12:02:44.159Z,1.50
2023-03-03T12:05:11.564Z,1.43
2023-03-03T12:07:47.929Z,1.70
2023-03-03T12:10:20.162Z,1.57
2023-03-03T12:12:52.841Z,1.50
2023-03-03T12:15:28.314Z,1.67
2023-03-03T12:18:13.465Z,1.40
2023-03-03T12:20:43.895Z,1.40
2023-03-03T12:23:17.326Z,1.57
2023-03-03T12:25:47.197Z,1.30
2023-03-03T12:28:17.725Z,1.70
2023-03-03T12:30:51.281Z,2.30
2023-03-03T12:33:18.725Z,1.50
2023-03-03T12:35:59.695Z,1.97
2023-03-03T12:38:27.242Z,2.23
2023-03-03T12:41:13.429Z,2.90
2023-03-03T12:43:40.815Z,2.47
2023-03-03T12:46:15.116Z,2.03
2023-03-03T12:48:44.372Z,2.40
2023-03-03T12:51:30.349Z,2.70
2023-03-03T12:54:15.766Z,2.40
2023-03-03T12:56:50.129Z,2.70
2023-03-03T12:59:37.365Z,2.33
2023-03-03T13:02:17.332Z,2.07
2023-03-03T13:05:05.487Z,2.57
2023-03-03T13:07:38.155Z,2.10
2023-03-03T13:10:13.995Z,2.20
2023-03-03T13:12:46.496Z,2.40
2023-03-03T13:15:18.213Z,2.60
2023-03-03T13:17:49.546Z,2.20
2023-03-03T13:20:23.592Z,3.30
2023-03-03T13:23:03.915Z,2.90
2023-03-03T13:25:40.513Z,3.17
2023-03-03T13:28:34.207Z,3.90
2023-03-03T13:31:10.024Z,3.33
2023-03-03T13:33:38.055Z,3.53
2023-03-03T13:36:08.368Z,3.50
2023-03-03T13:38:40.646Z,3.50
2023-03-03T13:41:23.418Z,3.53
2023-03-03T13:43:53.489Z,4.10
2023-03-03T13:46:27.066Z,3.77
2023-03-03T13:49:00.425Z,3.50
2023-03-03T13:51:30.805Z,4.23
2023-03-03T13:54:05.084Z,3.90
2023-03-03T13:56:44.392Z,3.90
2023-03-03T13:59:22.003Z,4.03
2023-03-03T14:01:52.472Z,3.67
2023-03-03T14:04:32.488Z,3.87
2023-03-03T14:07:04.432Z,4.00
2023-03-03T14:09:45.367Z,4.23
2023-03-03T14:12:14.245Z,4.73
2023-03-03T14:14:53.567Z,4.63
2023-03-03T14:17:38.531Z,4.40
2023-03-03T14:20:24.425Z,4.03
2023-03-03T14:22:57.224Z,4.10
2023-03-03T14:25:24.602Z,4.23
2023-03-03T14:27:59.807Z,4.30
2023-03-03T14:30:27.438Z,4.57
2023-03-03T14:33:00.638Z,4.33
2023-03-03T14:35:31.021Z,4.67
2023-03-03T14:38:02.576Z,4.40
2023-03-03T14:40:34.258Z,4.33
2023-03-03T14:43:02.726Z,5.13
2023-03-03T14:45:31.290Z,5.67
2023-03-03T14:47:59.727Z,5.03
2023-03-03T14:50:30.296Z,5.03
2023-03-03T14:53:10.329Z,4.40
2023-03-03T14:55:39.492Z,4.50
2023-03-03T14:58:25.322Z,5.30
2023-03-03T15:01:11.585Z,4.63
2023-03-03T15:03:45.071Z,4.77
2023-03-03T15:06:13.230Z,4.70
2023-03-03T15:08:42.131Z,5.67
2023-03-03T15:11:18.599Z,5.70
2023-03-03T15:13:46.361Z,6.37
2023-03-03T15:16:24.850Z,7.00
2023-03-03T15:19:11.848Z,6.20
2023-03-03T15:21:43.965Z,5.93
2023-03-03T15:24:16.731Z,6.00
2023-03-03T15:26:44.282Z,6.90
2023-03-03T15:29:23.446Z,7.63
2023-03-03T15:32:06.155Z,8.13
2023-03-03T15:34:49.434Z,7.13
2023-03-03T15:37:35.350Z,7.00
2023-03-03T15:40:04.076Z,7.40
2023-03-03T15:42:35.721Z,7.60
2023-03-03T15:45:21.884Z,7.97
2023-03-03T15:48:08.080Z,7.80
2023-03-03T15:50:41.495Z,7.73
2023-03-03T15:53:27.452Z,8.53
2023-03-03T15:56:13.332Z,9.70
2023-03-03T15:58:40.713Z,9.47
2023-03-03T16:01:11.225Z,8.93
2023-03-03T16:03:50.532Z,10.00
2023-03-03T16:06:25.240Z,11.03
2023-03-03T16:09:09.932Z,11.63
2023-03-03T16:11:45.918Z,11.93
2023-03-03T16:14:31.689Z,11.60
2023-03-03T16:17:05.902Z,10.90
2023-03-03T16:19:45.448Z,11.53
2023-03-03T16:22:22.873Z,11.87
2023-03-03T16:25:19.322Z,11.60
2023-03-03T16:27:46.821Z,11.47
2023-03-03T16:30:28.219Z,11.50
2023-03-03T16:33:16.048Z,12.57
2023-03-03T16:35:45.679Z,13.40
2023-03-03T16:38:25.164Z,13.37
2023-03-03T16:40:55.225Z,12.57
2023-03-03T16:43:40.924Z,14.30
2023-03-03T16:46:26.713Z,14.13
2023-03-03T16:49:00.699Z,11.97
2023-03-03T16:51:43.124Z,15.30
2023-03-03T16:54:15.703Z,15.70
2023-03-03T16:56:43.181Z,16.13
2023-03-03T16:59:19.589Z,15.07
2023-03-03T17:02:02.299Z,16.93
2023-03-03T17:04:38.136Z,16.90
2023-03-03T17:07:05.482Z,16.13
2023-03-03T17:09:44.041Z,17.40
2023-03-03T17:12:20.663Z,17.77
2023-03-03T17:15:06.722Z,16.87
2023-03-03T17:18:03.563Z,16.73
2023-03-03T17:20:40.442Z,17.47
2023-03-03T17:23:19.560Z,19.53
2023-03-03T17:25:47.036Z,18.23
2023-03-03T17:28:21.878Z,19.53
2023-03-03T17:30:51.986Z,20.20
2023-03-03T17:33:34.435Z,19.93
2023-03-03T17:36:20.160Z,20.20
2023-03-03T17:38:53.161Z,21.10
2023-03-03T17:41:20.523Z,20.63
2023-03-03T17:44:00.929Z,20.73
2023-03-03T17:46:46.699Z,21.33
2023-03-03T17:49:30.240Z,20.23
2023-03-03T17:52:16.322Z,21.37
2023-03-03T17:54:43.685Z,21.60
2023-03-03T17:57:26.268Z,21.53
2023-03-03T17:59:59.351Z,21.23
2023-03-03T18:02:45.549Z,22.87
2023-03-03T18:05:31.147Z,21.37
2023-03-03T18:08:05.047Z,21.23
2023-03-03T18:10:51.140Z,21.03
2023-03-03T18:13:21.743Z,21.60
2023-03-03T18:16:11.599Z,22.33
2023-03-03T18:18:58.481Z,23.03
2023-03-03T18:21:28.892Z,23.03
2023-03-03T18:24:16.219Z,24.63
2023-03-03T18:26:43.995Z,23.53
2023-03-03T18:29:17.467Z,24.00
2023-03-03T18:31:48.341Z,25.50
2023-03-03T18:34:21.369Z,22.33
2023-03-03T18:37:17.928Z,23.70
2023-03-03T18:39:49.506Z,23.00
2023-03-03T18:42:16.972Z,23.10
2023-03-03T18:44:50.062Z,23.07
2023-03-03T18:47:17.675Z,23.37
2023-03-03T18:50:14.220Z,24.27
2023-03-03T18:53:01.575Z,23.10
2023-03-03T18:55:29.270Z,22.83
2023-03-03T18:58:03.567Z,23.03
2023-03-03T19:00:32.046Z,22.37
2023-03-03T19:03:00.565Z,23.60
2023-03-03T19:05:35.342Z,24.37
2023-03-03T19:08:04.409Z,25.03
2023-03-03T19:10:40.700Z,24.70
2023-03-03T19:13:37.533Z,21.57
2023-03-03T19:16:04.880Z,22.87
2023-03-03T19:18:35.013Z,23.23
2023-03-03T19:21:06.248Z,25.13
2023-03-03T19:23:52.265Z,24.30
2023-03-03T19:26:25.740Z,21.07
2023-03-03T19:29:01.491Z,18.93
2023-03-03T19:31:28.764Z,16.53
2023-03-03T19:34:20.352Z,17.37
2023-03-03T19:37:11.966Z,17.60
2023-03-03T19:39:46.499Z,16.17
2023-03-03T19:42:16.602Z,16.70
2023-03-03T19:45:02.388Z,17.17
2023-03-03T19:47:48.124Z,17.43
2023-03-03T19:50:24.242Z,15.67
2023-03-03T19:53:03.127Z,17.23
2023-03-03T19:55:55.178Z,16.90
2023-03-03T19:58:25.415Z,19.37
2023-03-03T20:00:53.011Z,19.37
2023-03-03T20:03:26.428Z,19.20
2023-03-03T20:06:00.787Z,20.07
2023-03-03T20:08:37.314Z,19.90
2023-03-03T20:11:25.356Z,20.17
2023-03-03T20:13:58.816Z,20.20
2023-03-03T20:16:40.740Z,21.07
2023-03-03T20:19:20.606Z,20.27
2023-03-03T20:22:07.768Z,19.83
2023-03-03T20:24:35.114Z,21.07
2023-03-03T20:27:05.789Z,20.30
2023-03-03T20:29:51.669Z,21.50
2023-03-03T20:32:37.366Z,23.93
2023-03-03T20:35:10.861Z,22.57
2023-03-03T20:37:45.383Z,21.10
2023-03-03T20:40:27.373Z,22.07
2023-03-03T20:43:05.093Z,20.37
2023-03-03T20:45:32.591Z,23.20
2023-03-03T20:48:12.132Z,22.43
2023-03-03T20:50:39.573Z,23.03
2023-03-03T20:53:27.552Z,22.50
2023-03-03T20:55:59.431Z,21.50
2023-03-03T20:58:29.418Z,22.70
2023-03-03T21:01:04.446Z,22.20
2023-03-03T21:03:36.523Z,22.00
2023-03-03T21:06:07.706Z,22.03
2023-03-03T21:08:41.137Z,23.50
2023-03-03T21:11:08.887Z,23.77
2023-03-03T21:13:41.060Z,23.40
2023-03-03T21:16:11.319Z,24.33
2023-03-03T21:18:39.215Z,21.83
2023-03-03T21:21:06.690Z,24.37
2023-03-03T21:23:34.172Z,22.47
2023-03-03T21:26:01.650Z,21.13
2023-03-03T21:28:30.149Z,21.80
2023-03-03T21:31:07.995Z,20.43
2023-03-03T21:33:44.488Z,20.67
2023-03-03T21:36:13.091Z,23.60
2023-03-03T21:38:40.670Z,22.90
2023-03-03T21:41:09.055Z,22.87
2023-03-03T21:43:47.323Z,24.77
2023-03-03T21:46:18.548Z,23.27
2023-03-03T21:48:46.300Z,23.93
2023-03-03T21:51:16.799Z,23.57
2023-03-03T21:53:47.001Z,25.37
2023-03-03T21:56:14.729Z,24.90
2023-03-03T21:58:43.124Z,23.73
2023-03-03T22:01:10.710Z,23.97
2023-03-03T22:03:38.199Z,24.50
2023-03-03T22:06:05.835Z,25.27
2023-03-03T22:08:33.225Z,25.70
2023-03-03T22:11:00.693Z,23.33
2023-03-03T22:13:28.109Z,23.87
2023-03-03T22:15:55.739Z,21.97
2023-03-03T22:18:23.113Z,23.50
2023-03-03T22:20:50.842Z,23.00
2023-03-03T22:23:19.131Z,23.93
2023-03-03T22:25:48.105Z,23.03
2023-03-03T22:28:15.653Z,23.93
2023-03-03T22:30:43.043Z,24.50
2023-03-03T22:33:10.450Z,23.13
2023-03-03T22:35:37.949Z,23.40
2023-03-03T22:38:05.415Z,24.00
2023-03-03T22:40:34.076Z,23.47
2023-03-03T22:43:01.487Z,22.57
2023-03-03T22:45:28.768Z,24.20
2023-03-03T22:47:56.119Z,23.87
2023-03-03T22:50:23.513Z,24.40
2023-03-03T22:52:50.929Z,25.07
2023-03-03T22:55:18.413Z,23.40
2023-03-03T22:57:45.755Z,22.03
2023-03-03T23:00:14.492Z,22.47
2023-03-03T23:02:42.191Z,22.23
2023-03-03T23:05:11.128Z,21.93
2023-03-03T23:07:40.005Z,22.23
2023-03-03T23:10:09.248Z,22.13
2023-03-03T23:12:36.761Z,24.00
2023-03-03T23:15:06.868Z,21.97
2023-03-03T23:17:34.215Z,22.57
2023-03-03T23:20:01.649Z,22.23
2023-03-03T23:22:29.149Z,23.83
2023-03-03T23:24:56.519Z,21.17
2023-03-03T23:27:23.888Z,23.00
2023-03-03T23:29:52.430Z,23.93
2023-03-03T23:32:20.907Z,24.07
2023-03-03T23:34:48.450Z,24.57
2023-03-03T23:37:15.918Z,21.37
2023-03-03T23:39:44.367Z,22.43
2023-03-03T23:42:11.872Z,20.83
2023-03-03T23:44:39.476Z,20.93
2023-03-03T23:47:07.837Z,21.37
2023-03-03T23:49:35.876Z,19.53
2023-03-03T23:52:03.244Z,20.43
2023-03-03T23:54:30.614Z,20.33
2023-03-03T23:56:58.051Z,19.73
2023-03-03T23:59:25.531Z,20.93
